KUCY/UCY METAR and TAF weather

Enter ICAO airport designator
Station Type Date Time Source
KUCY METAR 2020/09/26 20:15 UTC NOAA

KUCY 262015Z AUTO VRB05KT 10SM OVC032 24/18 A2994 RMK A01


Station Type Date Time Source
KUCY Decoded METAR 2020/09/26 20:15 UTC NOAA

Station name not available
Sep 26, 2020 - 04:15 PM EDT / 2020.09.26 2015 UTC
Wind: Variable at 6 MPH (5 KT):0
Visibility: 10 mile(s):0
Sky conditions: overcast
Temperature: 75 F (24 C)
Dew Point: 64 F (18 C)
Relative Humidity: 69%
Pressure (altimeter): 29.94 in. Hg (1013 hPa)
ob: KUCY 262015Z AUTO VRB05KT 10SM OVC032 24/18 A2994 RMK A01
cycle: 20

Station Type Date Time Source
KUCY TAF UTC NOAA

Error!

Example: see airport list